• Join FlightAware (Why Join?)
  • Login
  • US Flag 
01:19PM EDT


 

Airport Tracker/Info


-or-


 

Live Flight TrackerFlight Track Log ✈ N1808R ✈ 15-Nov-2013 ✈ KLXY - KCZT

Flight Track Log - Related Links

Times and Time Zones

All times are in EST time to prevent confusion due to time zone crossing. See the N1808R flight status page for this flight to view local times or setup timezone preferences in your user account.

Time Position Orientation Groundspeed Altitude Reporting Facility
EST Latitude Longitude Course Direction KTS MPH feet Rate Location/Type
01:13PM 31.8803 -96.5106 225° Southwest 139 160 5,100  Level Fort Worth Center
01:14PM 31.8575 -96.5378 225° Southwest 139 160 5,800 660 Climbing Fort Worth Center
01:15PM 31.8264 -96.5650 217° Southwest 139 160 6,500 600 Climbing Fort Worth Center
01:16PM 31.7972 -96.5944 221° Southwest 139 160 7,100 600 Climbing Fort Worth Center
01:17PM 31.7683 -96.6264 223° Southwest 139 160 7,700 600 Climbing Fort Worth Center
01:18PM 31.7436 -96.6492 218° Southwest 141 162 8,200 600 Climbing Houston Center
01:19PM 31.7156 -96.6792 222° Southwest 136 157 8,800 540 Climbing Houston Center
01:20PM 31.6872 -96.7086 221° Southwest 135 155 9,400 540 Climbing Houston Center
01:21PM 31.6569 -96.7400 221° Southwest 141 162 10,000 540 Climbing Houston Center
01:22PM 31.6256 -96.7736 222° Southwest 147 169 10,600 480 Climbing Houston Center
01:23PM 31.5914 -96.8067 219° Southwest 154 177 11,100 540 Climbing Houston Center
01:24PM 31.5511 -96.8486 222° Southwest 162 186 11,800 600 Climbing Houston Center
01:25PM 31.5172 -96.8844 222° Southwest 163 188 12,400 480 Climbing Houston Center
01:26PM 31.4819 -96.9197 220° Southwest 165 190 12,900 480 Climbing Houston Center
01:27PM 31.4464 -96.9553 220° Southwest 167 192 13,400 480 Climbing Houston Center
01:28PM 31.4119 -96.9922 222° Southwest 168 193 14,000 480 Climbing Houston Center
01:29PM 31.3758 -97.0281 220° Southwest 168 193 14,400 240 Climbing Houston Center
01:30PM 31.3322 -97.0725 221° Southwest 175 201 14,600  Climbing Houston Center
01:31PM 31.2919 -97.1142 221° Southwest 192 221 14,500 -60 Descending Houston Center
01:32PM 31.2511 -97.1547 220° Southwest 187 215 14,500  Level Houston Center
01:34PM 31.2142 -97.1928 221° Southwest 181 208 14,600  Climbing Houston Center
01:35PM 31.1769 -97.2303 221° Southwest 177 204 14,500 -60 Descending Houston Center
01:36PM 31.1392 -97.2678 220° Southwest 178 205 14,500  Level Houston Center
01:37PM 31.0964 -97.3114 221° Southwest 175 201 14,500  Level Houston Center
01:38PM 31.0597 -97.3494 222° Southwest 177 204 14,500  Level Houston Center
01:39PM 31.0219 -97.3878 221° Southwest 179 206 14,500  Level Houston Center
01:40PM 30.9839 -97.4264 221° Southwest 181 208 14,500  Level Houston Center
01:41PM 30.9458 -97.4642 220° Southwest 180 207 14,500  Level Houston Center
01:42PM 30.9014 -97.5083 220° Southwest 179 206 14,500  Level Houston Center
01:43PM 30.8631 -97.5469 221° Southwest 180 207 14,500  Level Houston Center
01:44PM 30.8242 -97.5864 221° Southwest 182 209 14,500  Level Houston Center
01:45PM 30.7853 -97.6253 221° Southwest 183 211 14,500  Level Houston Center
01:46PM 30.7472 -97.6636 221° Southwest 180 207 14,500  Level Houston Center
01:47PM 30.7083 -97.7022 220° Southwest 181 208 14,500  Level Houston Center
01:48PM 30.6706 -97.7400 221° Southwest 180 207 14,500  Level Houston Center
01:49PM 30.6258 -97.7844 221° Southwest 179 206 14,500  Level Houston Center
01:50PM 30.5872 -97.8233 221° Southwest 180 207 14,500  Level Houston Center
01:51PM 30.5483 -97.8625 221° Southwest 182 209 14,500  Level Houston Center
01:52PM 30.5086 -97.8997 219° Southwest 182 209 14,500  Level Houston Center
01:53PM 30.4733 -97.9381 223° Southwest 175 201 14,500  Level Houston Center
01:54PM 30.4353 -97.9736 219° Southwest 174 200 14,500  Level Houston Center
01:55PM 30.3914 -98.0172 221° Southwest 175 201 14,500  Level Houston Center
01:56PM 30.3542 -98.0553 221° Southwest 176 203 14,500  Level Houston Center
01:57PM 30.3164 -98.0928 221° Southwest 174 200 14,500  Level Houston Center
01:58PM 30.2764 -98.1319 220° Southwest 175 201 14,500  Level Houston Center
01:59PM 30.2397 -98.1694 221° Southwest 177 204 14,500  Level Houston Center
02:00PM 30.1989 -98.2092 220° Southwest 178 205 14,500 -60 Level Houston Center
02:01PM 30.1614 -98.2453 220° Southwest 176 203 14,400 -60 Descending Houston Center
02:03PM 30.1211 -98.2850 220° Southwest 177 204 14,400  Level Houston Center
02:04PM 30.0839 -98.3219 221° Southwest 177 204 14,400  Level Houston Center
02:05PM 30.0439 -98.3606 220° Southwest 174 200 14,400  Level Houston Center
02:06PM 30.0069 -98.3967 220° Southwest 175 201 14,400  Level Houston Center
02:07PM 29.9669 -98.4361 221° Southwest 175 201 14,400  Level Houston Center
02:08PM 29.9294 -98.4733 221° Southwest 177 204 14,400  Level Houston Center
02:09PM 29.8894 -98.5128 221° Southwest 177 204 14,400 -60 Level Houston Center
02:10PM 29.8511 -98.5503 220° Southwest 181 208 14,300 -240 Descending Houston Center
02:11PM 29.8117 -98.5886 220° Southwest 186 214 14,000 -300 Descending Houston Center
02:12PM 29.7686 -98.6311 221° Southwest 190 219 13,700 -300 Descending Houston Center
02:13PM 29.7283 -98.6700 220° Southwest 189 217 13,400 -300 Descending Houston Center
02:14PM 29.6853 -98.7119 220° Southwest 188 216 13,200 -300 Descending Houston Center
02:15PM 29.6453 -98.7497 219° Southwest 188 216 12,800 -420 Descending Houston Center
02:16PM 29.6019 -98.7917 220° Southwest 189 217 12,400 -420 Descending Houston Center
02:17PM 29.5617 -98.8297 219° Southwest 189 217 12,000 -420 Descending Houston Center
02:18PM 29.5189 -98.8717 220° Southwest 188 216 11,600 -480 Descending Houston Center
02:19PM 29.4797 -98.9094 220° Southwest 185 213 11,100 -480 Descending Houston Center
02:20PM 29.4372 -98.9511 220° Southwest 186 214 10,700 -420 Descending Houston Center
02:21PM 29.3964 -98.9903 220° Southwest 189 217 10,300 -420 Descending Houston Center
02:22PM 29.3522 -99.0322 220° Southwest 191 220 9,900 -420 Descending Houston Center
02:23PM 29.3117 -99.0717 220° Southwest 191 220 9,500 -420 Descending Houston Center
02:24PM 29.2692 -99.1133 221° Southwest 188 216 9,100 -480 Descending Houston Center
02:25PM 29.2286 -99.1522 220° Southwest 189 217 8,600 -540 Descending Houston Center
02:26PM 29.1858 -99.1936 220° Southwest 187 215 8,100 -540 Descending Houston Center
02:27PM 29.1453 -99.2322 220° Southwest 189 217 7,600 -540 Descending Houston Center
02:28PM 29.1014 -99.2736 219° Southwest 189 217 7,100 -480 Descending Houston Center
02:29PM 29.0597 -99.3128 219° Southwest 192 221 6,600 -480 Descending Houston Center
02:30PM 29.0194 -99.3508 220° Southwest 196 226 6,100 -300 Descending Houston Center
02:32PM 28.9797 -99.3897 221° Southwest 193 222 6,100  Level Houston Center
02:33PM 28.9419 -99.4250 219° Southwest 187 215 6,100  Level Houston Center
02:34PM 28.8994 -99.4658 220° Southwest 178 205 6,100  Level Houston Center
02:35PM 28.8633 -99.4994 219° Southwest 173 199 6,100  Level Houston Center
02:36PM 28.8269 -99.5331 219° Southwest 170 196 6,100  Level Houston Center
02:37PM 28.7894 -99.5681 219° Southwest 171 197 6,100 -180 Level Houston Center
02:38PM 28.7522 -99.6044 221° Southwest 175 201 5,800 -300 Descending Houston Center